createdAt,value
2022-11-01T18:14:24.350Z,8.57
2022-11-01T18:15:28.490Z,5.18
2022-11-01T18:16:49.308Z,4.50
2022-11-01T18:18:05.565Z,5.32
2022-11-01T18:19:25.757Z,6.18
2022-11-01T18:20:46.609Z,6.35
2022-11-01T18:22:00.561Z,6.40
2022-11-01T18:23:07.664Z,6.85
2022-11-01T18:24:16.052Z,6.35
2022-11-01T18:25:31.473Z,7.13
2022-11-01T18:26:35.031Z,6.90
2022-11-01T18:27:37.662Z,6.30
2022-11-01T18:28:42.863Z,5.97
2022-11-01T18:29:46.844Z,5.88
2022-11-01T18:31:10.776Z,5.87
2022-11-01T18:32:32.902Z,6.18
2022-11-01T18:33:56.014Z,6.70
2022-11-01T18:35:06.191Z,7.03
2022-11-01T18:36:35.246Z,6.28
2022-11-01T18:37:42.337Z,6.13
2022-11-01T18:39:09.559Z,5.28
2022-11-01T18:40:26.626Z,5.35
2022-11-01T18:41:28.697Z,6.15
2022-11-01T18:42:31.263Z,6.22
2022-11-01T18:43:37.895Z,6.00
2022-11-01T18:44:41.988Z,5.35
2022-11-01T18:46:04.555Z,5.78
2022-11-01T18:47:24.006Z,5.50
2022-11-01T18:48:26.913Z,6.18
2022-11-01T18:49:30.496Z,5.22
2022-11-01T18:50:35.177Z,6.03
2022-11-01T18:51:38.387Z,5.88
2022-11-01T18:52:39.782Z,6.60
2022-11-01T18:53:42.718Z,6.63
2022-11-01T18:54:53.617Z,7.45
2022-11-01T18:56:11.353Z,6.85
2022-11-01T18:57:18.682Z,7.13
2022-11-01T18:58:39.666Z,7.32
2022-11-01T18:59:41.896Z,7.10
2022-11-01T19:00:44.713Z,7.18
2022-11-01T19:01:51.753Z,7.15
2022-11-01T19:02:58.656Z,5.88
2022-11-01T19:04:11.731Z,6.43
2022-11-01T19:05:32.214Z,5.50
2022-11-01T19:06:36.530Z,6.73
2022-11-01T19:08:04.668Z,5.45
2022-11-01T19:09:14.341Z,5.05
2022-11-01T19:10:35.445Z,5.72
2022-11-01T19:11:37.725Z,5.90
2022-11-01T19:12:41.677Z,5.97
2022-11-01T19:13:45.750Z,5.00
2022-11-01T19:14:53.872Z,6.07
2022-11-01T19:15:57.999Z,6.07
2022-11-01T19:17:00.069Z,4.93
2022-11-01T19:18:15.090Z,5.38
2022-11-01T19:19:18.081Z,5.40
2022-11-01T19:20:34.736Z,4.72
2022-11-01T19:21:37.133Z,4.90
2022-11-01T19:22:42.345Z,5.93
2022-11-01T19:23:46.278Z,4.82
2022-11-01T19:24:48.900Z,5.28
2022-11-01T19:25:51.352Z,7.05
2022-11-01T19:26:54.965Z,5.75
2022-11-01T19:28:01.707Z,4.80
2022-11-01T19:29:15.342Z,3.40
2022-11-01T19:30:23.084Z,3.83
2022-11-01T19:31:44.401Z,3.78
2022-11-01T19:32:48.303Z,3.47
2022-11-01T19:33:55.663Z,4.07
2022-11-01T19:35:00.014Z,5.05
2022-11-01T19:36:11.754Z,5.10
2022-11-01T19:37:37.578Z,5.28
2022-11-01T19:38:45.710Z,4.43
2022-11-01T19:39:47.697Z,4.35
2022-11-01T19:40:52.049Z,5.07
2022-11-01T19:41:55.635Z,4.80
2022-11-01T19:42:59.943Z,3.75
2022-11-01T19:44:08.225Z,3.30
2022-11-01T19:45:12.549Z,3.47
2022-11-01T19:46:16.167Z,3.47
2022-11-01T19:47:35.848Z,3.85
2022-11-01T19:48:38.230Z,4.10
2022-11-01T19:49:42.500Z,4.35
2022-11-01T19:50:44.423Z,4.13
2022-11-01T19:51:46.741Z,3.90
2022-11-01T19:52:55.802Z,4.40
2022-11-01T19:53:59.969Z,4.43
2022-11-01T19:55:02.161Z,4.43
2022-11-01T19:56:21.628Z,4.50
2022-11-01T19:57:28.612Z,3.80
2022-11-01T19:58:48.947Z,3.65
2022-11-01T19:59:50.764Z,4.13
2022-11-01T20:01:10.935Z,4.45
2022-11-01T20:02:22.965Z,3.13
2022-11-01T20:03:27.402Z,3.47
2022-11-01T20:04:31.917Z,3.35
2022-11-01T20:05:34.814Z,3.40
2022-11-01T20:06:42.062Z,2.97
2022-11-01T20:07:44.609Z,3.70
2022-11-01T20:08:47.111Z,3.90
2022-11-01T20:09:52.549Z,3.38
2022-11-01T20:10:56.882Z,3.60
2022-11-01T20:11:58.238Z,4.00
2022-11-01T20:12:59.686Z,3.63
2022-11-01T20:14:02.333Z,3.33
2022-11-01T20:15:04.246Z,3.60
2022-11-01T20:16:12.134Z,4.88
2022-11-01T20:17:15.717Z,5.47
2022-11-01T20:18:18.750Z,6.35
2022-11-01T20:19:23.771Z,7.18
2022-11-01T20:20:26.234Z,9.65
2022-11-01T20:21:27.738Z,9.15
2022-11-01T20:22:30.663Z,6.93
2022-11-01T20:23:36.443Z,4.97
2022-11-01T20:24:41.652Z,3.17
2022-11-01T20:25:45.383Z,3.47
2022-11-01T20:26:48.102Z,3.63
2022-11-01T20:27:49.542Z,3.90
2022-11-01T20:28:50.981Z,3.53
2022-11-01T20:29:52.981Z,4.97
2022-11-01T20:30:56.240Z,5.60
2022-11-01T20:31:57.965Z,4.35
2022-11-01T20:33:03.389Z,3.70
2022-11-01T20:34:06.297Z,3.15
2022-11-01T20:35:12.526Z,3.20
2022-11-01T20:36:15.394Z,3.15
2022-11-01T20:37:33.060Z,2.80
2022-11-01T20:38:34.897Z,2.70
2022-11-01T20:39:38.238Z,2.80
2022-11-01T20:40:39.979Z,2.90
2022-11-01T20:41:42.837Z,3.63
2022-11-01T20:42:44.814Z,4.07
2022-11-01T20:43:47.345Z,3.72
2022-11-01T20:44:48.722Z,4.35
2022-11-01T20:45:52.147Z,5.20
2022-11-01T20:46:53.741Z,4.82
2022-11-01T20:47:57.342Z,4.75
2022-11-01T20:49:03.697Z,4.40
2022-11-01T20:50:06.827Z,4.80
2022-11-01T20:51:08.765Z,5.40
2022-11-01T20:52:38.148Z,5.65
2022-11-01T20:53:34.142Z,6.18
2022-11-01T20:54:36.487Z,5.10
2022-11-01T20:55:38.896Z,6.10
2022-11-01T20:56:42.237Z,6.32
2022-11-01T20:57:46.993Z,5.97
2022-11-01T20:58:49.430Z,5.85
2022-11-01T20:59:51.285Z,5.43
2022-11-01T21:00:54.329Z,5.88
2022-11-01T21:01:56.349Z,5.38
2022-11-01T21:03:01.398Z,4.13
2022-11-01T21:04:12.089Z,4.70
2022-11-01T21:05:28.564Z,5.00
2022-11-01T21:06:34.365Z,4.78
2022-11-01T21:07:37.221Z,5.00
2022-11-01T21:08:41.509Z,5.20
2022-11-01T21:09:45.646Z,5.43
2022-11-01T21:10:54.024Z,5.82
2022-11-01T21:11:57.291Z,5.00
2022-11-01T21:13:00.332Z,5.15
2022-11-01T21:14:13.774Z,4.93
2022-11-01T21:15:35.149Z,5.47
2022-11-01T21:16:39.233Z,4.65
2022-11-01T21:17:42.099Z,4.07
2022-11-01T21:18:47.356Z,3.60
2022-11-01T21:19:53.630Z,3.63
2022-11-01T21:20:59.173Z,3.90
2022-11-01T21:22:01.469Z,3.58
2022-11-01T21:23:24.789Z,3.87
2022-11-01T21:24:34.325Z,3.67
2022-11-01T21:25:37.000Z,3.63
2022-11-01T21:26:42.220Z,3.38
2022-11-01T21:27:51.248Z,4.80
2022-11-01T21:29:17.483Z,3.58
2022-11-01T21:30:19.841Z,3.90
2022-11-01T21:31:31.952Z,3.28
2022-11-01T21:32:35.853Z,3.50
2022-11-01T21:33:38.859Z,3.50
2022-11-01T21:34:44.015Z,3.30
2022-11-01T21:35:45.965Z,3.10
2022-11-01T21:36:48.252Z,3.33
2022-11-01T21:37:54.318Z,3.38
2022-11-01T21:39:01.383Z,3.53
2022-11-01T21:40:14.532Z,3.97
2022-11-01T21:41:31.636Z,3.60
2022-11-01T21:42:36.498Z,4.32
2022-11-01T21:43:38.968Z,3.10
2022-11-01T21:44:41.763Z,3.00
2022-11-01T21:45:45.589Z,3.22
2022-11-01T21:47:07.537Z,3.63
2022-11-01T21:48:28.306Z,3.70
2022-11-01T21:49:30.803Z,3.10
2022-11-01T21:50:35.696Z,2.90
2022-11-01T21:51:37.509Z,3.40
2022-11-01T21:52:39.946Z,3.05
2022-11-01T21:53:41.862Z,2.40
2022-11-01T21:54:45.235Z,2.90
2022-11-01T21:55:46.944Z,3.63
2022-11-01T21:56:49.558Z,3.23
2022-11-01T21:57:51.868Z,3.30
2022-11-01T21:58:54.420Z,3.00
2022-11-01T21:59:55.952Z,3.00
2022-11-01T22:00:58.555Z,3.40
2022-11-01T22:02:01.286Z,2.80
2022-11-01T22:03:03.131Z,2.65
2022-11-01T22:04:04.785Z,3.30
2022-11-01T22:05:07.820Z,2.88
2022-11-01T22:06:10.329Z,2.63
2022-11-01T22:07:12.816Z,2.60
2022-11-01T22:08:14.197Z,2.78
2022-11-01T22:09:17.528Z,3.30
2022-11-01T22:10:18.832Z,2.80
2022-11-01T22:11:23.748Z,2.80
2022-11-01T22:12:25.968Z,3.47
2022-11-01T22:13:28.558Z,3.80
2022-11-01T22:14:32.020Z,3.40
2022-11-01T22:15:37.153Z,3.60
2022-11-01T22:16:38.831Z,3.90
2022-11-01T22:17:41.185Z,3.38
2022-11-01T22:18:42.812Z,3.58
2022-11-01T22:19:45.622Z,3.60
2022-11-01T22:20:47.865Z,3.60
2022-11-01T22:21:50.513Z,3.55
2022-11-01T22:22:52.154Z,3.28
2022-11-01T22:23:55.913Z,3.08
2022-11-01T22:24:59.695Z,3.10
2022-11-01T22:26:01.805Z,3.67
2022-11-01T22:27:05.799Z,3.45
2022-11-01T22:28:08.536Z,3.60
2022-11-01T22:29:10.193Z,3.17
2022-11-01T22:30:15.502Z,3.00
2022-11-01T22:31:16.893Z,3.50
2022-11-01T22:32:21.631Z,3.38
2022-11-01T22:33:23.920Z,2.95
2022-11-01T22:34:26.704Z,3.47
2022-11-01T22:35:33.957Z,3.00
2022-11-01T22:36:36.354Z,3.50
2022-11-01T22:37:37.911Z,3.22
2022-11-01T22:38:46.483Z,3.08
2022-11-01T22:39:52.855Z,2.97
2022-11-01T22:42:14.600Z,3.20
2022-11-01T22:43:17.741Z,3.80
2022-11-01T22:44:25.112Z,5.53
2022-11-01T22:45:29.361Z,4.88
2022-11-01T22:46:42.334Z,4.43
2022-11-01T22:47:46.012Z,4.25
2022-11-01T22:48:48.802Z,3.95
2022-11-01T22:49:55.512Z,4.03
2022-11-01T22:51:02.664Z,3.90
2022-11-01T22:52:29.524Z,3.67
2022-11-01T22:53:30.948Z,3.70
2022-11-01T22:54:34.649Z,2.70
2022-11-01T22:55:39.797Z,3.13
2022-11-01T22:56:41.924Z,2.65
2022-11-01T22:57:52.443Z,3.15
2022-11-01T22:58:55.314Z,3.28
2022-11-01T23:00:00.945Z,2.95
2022-11-01T23:01:19.511Z,2.63
2022-11-01T23:02:36.125Z,2.95
2022-11-01T23:03:43.859Z,3.05
2022-11-01T23:04:45.806Z,2.53
2022-11-01T23:05:51.247Z,2.70
2022-11-01T23:06:55.992Z,2.22
2022-11-01T23:07:58.624Z,2.60
2022-11-01T23:09:09.781Z,2.20
2022-11-01T23:10:27.602Z,2.53
2022-11-01T23:11:48.708Z,2.22
2022-11-01T23:13:10.744Z,1.98
2022-11-01T23:14:39.819Z,2.70
2022-11-01T23:15:41.959Z,2.38
2022-11-01T23:16:46.284Z,2.40
2022-11-01T23:17:51.448Z,2.10
2022-11-01T23:18:57.397Z,2.45
2022-11-01T23:20:02.344Z,2.50
2022-11-01T23:21:09.233Z,2.63
2022-11-01T23:22:24.020Z,2.55
2022-11-01T23:23:26.943Z,2.88
2022-11-01T23:24:31.362Z,2.40
2022-11-01T23:25:33.244Z,2.45
2022-11-01T23:26:34.836Z,2.50
2022-11-01T23:27:38.274Z,2.30
2022-11-01T23:28:43.541Z,2.60
2022-11-01T23:29:47.333Z,2.35
2022-11-01T23:30:49.500Z,2.92
2022-11-01T23:31:52.063Z,2.78
2022-11-01T23:32:56.130Z,2.30
2022-11-01T23:34:00.950Z,2.20
2022-11-01T23:35:11.959Z,2.30
2022-11-01T23:36:22.444Z,2.28
2022-11-01T23:37:23.800Z,2.13
2022-11-01T23:38:38.469Z,2.30
2022-11-01T23:39:39.879Z,2.20
2022-11-01T23:40:42.946Z,2.47
2022-11-01T23:41:46.905Z,2.20
2022-11-01T23:42:51.189Z,2.55
2022-11-01T23:43:57.721Z,2.60
2022-11-01T23:45:00.110Z,2.42
2022-11-01T23:46:04.155Z,2.50
2022-11-01T23:47:14.090Z,2.40
2022-11-01T23:48:16.043Z,2.35
2022-11-01T23:49:19.981Z,2.58
2022-11-01T23:50:40.615Z,2.70
2022-11-01T23:51:43.675Z,2.03
2022-11-01T23:52:46.773Z,2.33
2022-11-01T23:53:51.172Z,2.80
2022-11-01T23:54:53.394Z,2.22
2022-11-01T23:55:55.963Z,2.28
2022-11-01T23:56:57.992Z,2.20
2022-11-01T23:58:05.668Z,2.25
2022-11-01T23:59:07.969Z,2.00
